sensor_id;sensor_type;location;lat;lon;timestamp;pressure;altitude;pressure_sealevel;temperature;humidity
21828;BME280;11076;47.942;11.804;2023-12-04T00:00:34;94398.28;;;-12.96;41.82
21828;BME280;11076;47.942;11.804;2023-12-04T00:05:36;94384.09;;;-13.21;42.34
21828;BME280;11076;47.942;11.804;2023-12-04T00:10:39;94383.00;;;-13.28;42.08
21828;BME280;11076;47.942;11.804;2023-12-04T00:15:41;94378.34;;;-13.34;41.99
21828;BME280;11076;47.942;11.804;2023-12-04T00:20:44;94369.31;;;-13.22;42.12
21828;BME280;11076;47.942;11.804;2023-12-04T00:25:46;94359.41;;;-13.28;42.06
21828;BME280;11076;47.942;11.804;2023-12-04T00:30:48;94357.75;;;-13.29;42.14
21828;BME280;11076;47.942;11.804;2023-12-04T00:35:51;94347.28;;;-13.57;42.04
21828;BME280;11076;47.942;11.804;2023-12-04T00:40:53;94356.69;;;-13.64;42.23
21828;BME280;11076;47.942;11.804;2023-12-04T00:45:56;94344.97;;;-13.42;42.01
21828;BME280;11076;47.942;11.804;2023-12-04T00:50:58;94354.56;;;-13.51;42.42
21828;BME280;11076;47.942;11.804;2023-12-04T00:56:00;94343.44;;;-13.35;41.82
21828;BME280;11076;47.942;11.804;2023-12-04T01:01:03;94343.44;;;-13.35;42.11
21828;BME280;11076;47.942;11.804;2023-12-04T01:06:06;94345.09;;;-13.16;42.21
21828;BME280;11076;47.942;11.804;2023-12-04T01:11:08;94331.16;;;-13.16;42.11
21828;BME280;11076;47.942;11.804;2023-12-04T01:16:11;94333.31;;;-13.30;42.38
21828;BME280;11076;47.942;11.804;2023-12-04T01:21:13;94327.25;;;-13.30;42.32
21828;BME280;11076;47.942;11.804;2023-12-04T01:26:16;94326.88;;;-13.00;42.40
21828;BME280;11076;47.942;11.804;2023-12-04T01:31:18;94321.72;;;-13.27;42.39
21828;BME280;11076;47.942;11.804;2023-12-04T01:36:21;94320.50;;;-13.33;41.89
21828;BME280;11076;47.942;11.804;2023-12-04T01:41:23;94319.09;;;-12.91;42.36
21828;BME280;11076;47.942;11.804;2023-12-04T01:46:26;94306.97;;;-12.48;41.59
21828;BME280;11076;47.942;11.804;2023-12-04T01:51:29;94306.31;;;-12.68;41.97
21828;BME280;11076;47.942;11.804;2023-12-04T01:56:34;94301.97;;;-12.59;42.11
21828;BME280;11076;47.942;11.804;2023-12-04T02:01:38;94286.44;;;-12.71;42.00
21828;BME280;11076;47.942;11.804;2023-12-04T02:06:41;94279.81;;;-12.83;42.05
21828;BME280;11076;47.942;11.804;2023-12-04T02:11:43;94265.63;;;-13.08;42.63
21828;BME280;11076;47.942;11.804;2023-12-04T02:16:46;94250.16;;;-12.75;42.43
21828;BME280;11076;47.942;11.804;2023-12-04T02:21:50;94251.69;;;-12.65;41.95
21828;BME280;11076;47.942;11.804;2023-12-04T02:26:55;94233.03;;;-12.62;41.88
21828;BME280;11076;47.942;11.804;2023-12-04T02:32:02;94230.22;;;-12.60;41.98
21828;BME280;11076;47.942;11.804;2023-12-04T02:37:08;94222.47;;;-12.88;42.18
21828;BME280;11076;47.942;11.804;2023-12-04T02:42:12;94225.47;;;-13.09;42.33
21828;BME280;11076;47.942;11.804;2023-12-04T02:47:15;94223.72;;;-13.18;42.10
21828;BME280;11076;47.942;11.804;2023-12-04T02:52:18;94217.38;;;-13.33;42.62
21828;BME280;11076;47.942;11.804;2023-12-04T02:57:21;94209.28;;;-13.22;42.22
21828;BME280;11076;47.942;11.804;2023-12-04T03:02:23;94201.34;;;-13.30;41.73
21828;BME280;11076;47.942;11.804;2023-12-04T03:07:26;94200.13;;;-13.18;41.82
21828;BME280;11076;47.942;11.804;2023-12-04T03:12:28;94198.75;;;-13.04;41.44
21828;BME280;11076;47.942;11.804;2023-12-04T03:17:31;94182.25;;;-12.96;41.55
21828;BME280;11076;47.942;11.804;2023-12-04T03:22:33;94165.94;;;-13.08;41.71
21828;BME280;11076;47.942;11.804;2023-12-04T03:27:35;94175.09;;;-13.30;41.78
21828;BME280;11076;47.942;11.804;2023-12-04T03:32:38;94158.22;;;-13.28;42.00
21828;BME280;11076;47.942;11.804;2023-12-04T03:37:40;94163.81;;;-13.31;41.76
21828;BME280;11076;47.942;11.804;2023-12-04T03:42:43;94155.78;;;-13.65;41.94
21828;BME280;11076;47.942;11.804;2023-12-04T03:47:45;94156.84;;;-13.94;42.31
21828;BME280;11076;47.942;11.804;2023-12-04T03:52:48;94157.72;;;-13.67;42.21
21828;BME280;11076;47.942;11.804;2023-12-04T03:57:50;94144.03;;;-13.43;41.68
21828;BME280;11076;47.942;11.804;2023-12-04T04:02:53;94138.50;;;-13.58;42.21
21828;BME280;11076;47.942;11.804;2023-12-04T04:07:55;94135.69;;;-13.38;41.71
21828;BME280;11076;47.942;11.804;2023-12-04T04:12:58;94127.97;;;-13.40;41.76
21828;BME280;11076;47.942;11.804;2023-12-04T04:18:00;94116.78;;;-13.24;42.31
21828;BME280;11076;47.942;11.804;2023-12-04T04:23:02;94113.69;;;-13.20;42.20
21828;BME280;11076;47.942;11.804;2023-12-04T04:28:05;94106.91;;;-13.04;42.23
21828;BME280;11076;47.942;11.804;2023-12-04T04:33:07;94109.88;;;-12.73;42.19
21828;BME280;11076;47.942;11.804;2023-12-04T04:38:10;94104.13;;;-12.76;42.01
21828;BME280;11076;47.942;11.804;2023-12-04T04:43:12;94109.75;;;-12.63;41.71
21828;BME280;11076;47.942;11.804;2023-12-04T04:48:14;94100.44;;;-12.57;42.00
21828;BME280;11076;47.942;11.804;2023-12-04T04:53:17;94097.75;;;-13.00;42.39
21828;BME280;11076;47.942;11.804;2023-12-04T04:58:19;94091.75;;;-12.84;42.39
21828;BME280;11076;47.942;11.804;2023-12-04T05:03:22;94090.66;;;-12.82;42.35
21828;BME280;11076;47.942;11.804;2023-12-04T05:08:24;94081.66;;;-12.71;42.38
21828;BME280;11076;47.942;11.804;2023-12-04T05:13:27;94074.63;;;-12.19;41.79
21828;BME280;11076;47.942;11.804;2023-12-04T05:18:29;94064.78;;;-12.01;41.68
21828;BME280;11076;47.942;11.804;2023-12-04T05:23:32;94048.38;;;-11.87;41.83
21828;BME280;11076;47.942;11.804;2023-12-04T05:28:34;94057.72;;;-12.09;41.70
21828;BME280;11076;47.942;11.804;2023-12-04T05:33:37;94060.47;;;-12.18;42.25
21828;BME280;11076;47.942;11.804;2023-12-04T05:38:40;94058.22;;;-12.13;42.34
21828;BME280;11076;47.942;11.804;2023-12-04T05:43:42;94054.63;;;-11.96;42.10
21828;BME280;11076;47.942;11.804;2023-12-04T05:48:44;94043.78;;;-11.93;41.84
21828;BME280;11076;47.942;11.804;2023-12-04T05:53:47;94047.09;;;-11.66;41.83
21828;BME280;11076;47.942;11.804;2023-12-04T05:58:49;94047.38;;;-11.53;41.82
21828;BME280;11076;47.942;11.804;2023-12-04T06:03:52;94045.41;;;-11.59;41.94
21828;BME280;11076;47.942;11.804;2023-12-04T06:08:54;94042.47;;;-11.81;41.92
21828;BME280;11076;47.942;11.804;2023-12-04T06:13:56;94035.56;;;-11.82;41.91
21828;BME280;11076;47.942;11.804;2023-12-04T06:18:59;94038.81;;;-12.04;42.62
21828;BME280;11076;47.942;11.804;2023-12-04T06:24:02;94022.09;;;-11.87;42.36
21828;BME280;11076;47.942;11.804;2023-12-04T06:29:06;94019.63;;;-11.96;42.13
21828;BME280;11076;47.942;11.804;2023-12-04T06:34:09;94014.19;;;-11.87;42.33
21828;BME280;11076;47.942;11.804;2023-12-04T06:39:12;94001.56;;;-11.83;42.16
21828;BME280;11076;47.942;11.804;2023-12-04T06:44:15;93998.13;;;-11.92;42.45
21828;BME280;11076;47.942;11.804;2023-12-04T06:49:18;93991.84;;;-11.66;41.77
21828;BME280;11076;47.942;11.804;2023-12-04T06:54:20;93986.22;;;-11.47;42.22
21828;BME280;11076;47.942;11.804;2023-12-04T06:59:23;93984.91;;;-11.34;41.87
21828;BME280;11076;47.942;11.804;2023-12-04T07:04:25;93982.75;;;-11.39;42.03
21828;BME280;11076;47.942;11.804;2023-12-04T07:09:27;93979.59;;;-11.18;41.78
21828;BME280;11076;47.942;11.804;2023-12-04T07:14:30;93973.44;;;-11.58;42.28
21828;BME280;11076;47.942;11.804;2023-12-04T07:19:32;93977.34;;;-11.46;41.95
21828;BME280;11076;47.942;11.804;2023-12-04T07:24:35;93962.81;;;-11.25;41.92
21828;BME280;11076;47.942;11.804;2023-12-04T07:29:37;93943.28;;;-10.91;41.69
21828;BME280;11076;47.942;11.804;2023-12-04T07:34:40;93934.53;;;-10.84;41.68
21828;BME280;11076;47.942;11.804;2023-12-04T07:39:43;93924.16;;;-10.54;41.76
21828;BME280;11076;47.942;11.804;2023-12-04T07:44:48;93911.16;;;-10.55;42.02
21828;BME280;11076;47.942;11.804;2023-12-04T07:49:50;93914.75;;;-10.48;41.98
21828;BME280;11076;47.942;11.804;2023-12-04T07:54:53;93912.41;;;-10.05;41.67
21828;BME280;11076;47.942;11.804;2023-12-04T07:59:55;93913.28;;;-9.90;41.62
21828;BME280;11076;47.942;11.804;2023-12-04T08:04:57;93907.88;;;-9.58;41.68
21828;BME280;11076;47.942;11.804;2023-12-04T08:10:00;93900.81;;;-9.43;41.33
21828;BME280;11076;47.942;11.804;2023-12-04T08:15:04;93917.72;;;-9.08;41.25
21828;BME280;11076;47.942;11.804;2023-12-04T08:20:07;93914.59;;;-8.45;41.00
21828;BME280;11076;47.942;11.804;2023-12-04T08:25:17;93908.13;;;-7.99;41.03
21828;BME280;11076;47.942;11.804;2023-12-04T08:30:20;93917.81;;;-7.57;40.54
21828;BME280;11076;47.942;11.804;2023-12-04T08:35:22;93902.50;;;-7.33;40.52
21828;BME280;11076;47.942;11.804;2023-12-04T08:40:24;93906.50;;;-7.09;40.64
21828;BME280;11076;47.942;11.804;2023-12-04T08:45:27;93899.63;;;-7.38;41.15
21828;BME280;11076;47.942;11.804;2023-12-04T08:50:29;93902.22;;;-6.69;40.64
21828;BME280;11076;47.942;11.804;2023-12-04T08:55:32;93891.56;;;-6.14;39.87
21828;BME280;11076;47.942;11.804;2023-12-04T09:00:34;93878.31;;;-6.07;40.18
21828;BME280;11076;47.942;11.804;2023-12-04T09:05:39;93889.16;;;-5.82;40.02
21828;BME280;11076;47.942;11.804;2023-12-04T09:10:42;93900.81;;;-5.83;39.45
21828;BME280;11076;47.942;11.804;2023-12-04T09:15:45;93897.09;;;-5.22;37.94
21828;BME280;11076;47.942;11.804;2023-12-04T09:20:48;93893.13;;;-4.93;38.88
21828;BME280;11076;47.942;11.804;2023-12-04T09:25:50;93889.34;;;-4.65;38.64
21828;BME280;11076;47.942;11.804;2023-12-04T09:30:53;93877.13;;;-4.28;38.57
21828;BME280;11076;47.942;11.804;2023-12-04T09:35:55;93877.13;;;-4.28;38.39
21828;BME280;11076;47.942;11.804;2023-12-04T09:40:59;93874.00;;;-3.93;38.22
21828;BME280;11076;47.942;11.804;2023-12-04T09:46:04;93868.78;;;-4.06;37.88
21828;BME280;11076;47.942;11.804;2023-12-04T09:51:07;93870.81;;;-4.01;38.25
21828;BME280;11076;47.942;11.804;2023-12-04T09:56:10;93866.44;;;-3.64;37.68
21828;BME280;11076;47.942;11.804;2023-12-04T10:01:13;93860.25;;;-3.65;38.32
21828;BME280;11076;47.942;11.804;2023-12-04T10:06:16;93841.69;;;-2.84;37.15
21828;BME280;11076;47.942;11.804;2023-12-04T10:11:19;93834.06;;;-2.50;37.11
21828;BME280;11076;47.942;11.804;2023-12-04T10:16:36;93845.78;;;-2.51;36.50
21828;BME280;11076;47.942;11.804;2023-12-04T10:21:39;93827.69;;;-2.49;37.21
21828;BME280;11076;47.942;11.804;2023-12-04T10:26:49;93823.25;;;-2.55;37.14
21828;BME280;11076;47.942;11.804;2023-12-04T10:31:53;93812.41;;;-2.42;36.09
21828;BME280;11076;47.942;11.804;2023-12-04T10:36:58;93804.97;;;-2.40;36.16
21828;BME280;11076;47.942;11.804;2023-12-04T10:42:02;93803.81;;;-2.44;36.57
21828;BME280;11076;47.942;11.804;2023-12-04T10:47:04;93798.75;;;-2.34;36.14
21828;BME280;11076;47.942;11.804;2023-12-04T10:52:09;93801.38;;;-2.15;36.30
21828;BME280;11076;47.942;11.804;2023-12-04T10:57:13;93785.13;;;-1.90;35.36
21828;BME280;11076;47.942;11.804;2023-12-04T11:02:21;93790.84;;;-1.75;36.02
21828;BME280;11076;47.942;11.804;2023-12-04T11:07:25;93779.50;;;-1.70;36.42
21828;BME280;11076;47.942;11.804;2023-12-04T11:12:30;93772.00;;;-1.92;36.69
21828;BME280;11076;47.942;11.804;2023-12-04T11:17:35;93764.69;;;-2.08;36.55
21828;BME280;11076;47.942;11.804;2023-12-04T11:22:41;93752.97;;;-2.07;36.42
21828;BME280;11076;47.942;11.804;2023-12-04T11:27:44;93750.25;;;-2.31;36.31
21828;BME280;11076;47.942;11.804;2023-12-04T11:32:49;93737.69;;;-2.42;36.44
21828;BME280;11076;47.942;11.804;2023-12-04T11:37:52;93723.66;;;-2.37;36.24
21828;BME280;11076;47.942;11.804;2023-12-04T11:42:54;93721.56;;;-2.35;36.54
21828;BME280;11076;47.942;11.804;2023-12-04T11:47:58;93717.41;;;-2.19;36.73
21828;BME280;11076;47.942;11.804;2023-12-04T11:53:02;93716.28;;;-1.88;35.95
21828;BME280;11076;47.942;11.804;2023-12-04T11:58:08;93716.50;;;-1.42;35.72
21828;BME280;11076;47.942;11.804;2023-12-04T12:03:14;93709.16;;;-1.23;35.95
21828;BME280;11076;47.942;11.804;2023-12-04T12:08:17;93708.03;;;-1.28;35.92
21828;BME280;11076;47.942;11.804;2023-12-04T12:13:20;93716.16;;;-1.34;36.33
21828;BME280;11076;47.942;11.804;2023-12-04T12:18:22;93705.78;;;-1.19;36.71
21828;BME280;11076;47.942;11.804;2023-12-04T12:23:26;93715.16;;;-1.05;36.52
21828;BME280;11076;47.942;11.804;2023-12-04T12:28:28;93723.31;;;-0.82;36.02
21828;BME280;11076;47.942;11.804;2023-12-04T12:33:31;93707.56;;;-1.36;36.80
21828;BME280;11076;47.942;11.804;2023-12-04T12:38:34;93700.59;;;-1.37;37.10
21828;BME280;11076;47.942;11.804;2023-12-04T12:43:38;93691.69;;;-1.14;37.01
21828;BME280;11076;47.942;11.804;2023-12-04T12:48:42;93686.09;;;-1.77;37.45
21828;BME280;11076;47.942;11.804;2023-12-04T12:53:45;93675.31;;;-1.18;36.97
21828;BME280;11076;47.942;11.804;2023-12-04T12:58:48;93686.25;;;-0.91;36.37
21828;BME280;11076;47.942;11.804;2023-12-04T13:03:52;93699.59;;;-0.79;37.00
21828;BME280;11076;47.942;11.804;2023-12-04T13:08:54;93689.34;;;-0.53;36.55
21828;BME280;11076;47.942;11.804;2023-12-04T13:13:57;93672.53;;;-0.94;37.13
21828;BME280;11076;47.942;11.804;2023-12-04T13:18:59;93658.44;;;-1.47;38.10
21828;BME280;11076;47.942;11.804;2023-12-04T13:24:02;93653.53;;;-1.50;37.54
21828;BME280;11076;47.942;11.804;2023-12-04T13:29:09;93644.53;;;-1.85;38.34
21828;BME280;11076;47.942;11.804;2023-12-04T13:34:11;93643.25;;;-1.70;37.62
21828;BME280;11076;47.942;11.804;2023-12-04T13:39:14;93627.78;;;-1.92;37.78
21828;BME280;11076;47.942;11.804;2023-12-04T13:44:19;93617.09;;;-1.80;37.30
21828;BME280;11076;47.942;11.804;2023-12-04T13:49:21;93614.94;;;-2.18;38.20
21828;BME280;11076;47.942;11.804;2023-12-04T13:54:24;93602.75;;;-2.26;37.92
21828;BME280;11076;47.942;11.804;2023-12-04T13:59:44;93613.31;;;-2.43;38.05
21828;BME280;11076;47.942;11.804;2023-12-04T14:04:46;93606.81;;;-2.47;37.84
21828;BME280;11076;47.942;11.804;2023-12-04T14:09:50;93595.47;;;-2.31;38.25
21828;BME280;11076;47.942;11.804;2023-12-04T14:14:53;93608.22;;;-2.09;37.41
21828;BME280;11076;47.942;11.804;2023-12-04T14:19:59;93599.25;;;-1.91;37.59
21828;BME280;11076;47.942;11.804;2023-12-04T14:25:02;93597.41;;;-2.38;38.04
21828;BME280;11076;47.942;11.804;2023-12-04T14:30:05;93583.28;;;-3.16;38.86
21828;BME280;11076;47.942;11.804;2023-12-04T14:35:08;93584.06;;;-3.76;39.87
21828;BME280;11076;47.942;11.804;2023-12-04T14:40:13;93582.22;;;-3.94;39.54
21828;BME280;11076;47.942;11.804;2023-12-04T14:45:17;93599.16;;;-4.50;40.23
21828;BME280;11076;47.942;11.804;2023-12-04T14:50:19;93604.28;;;-4.99;40.33
21828;BME280;11076;47.942;11.804;2023-12-04T14:55:22;93599.63;;;-5.04;40.19
21828;BME280;11076;47.942;11.804;2023-12-04T15:00:25;93600.25;;;-5.08;40.33
21828;BME280;11076;47.942;11.804;2023-12-04T15:05:46;93584.44;;;-4.96;39.74
21828;BME280;11076;47.942;11.804;2023-12-04T15:11:20;93577.00;;;-5.13;39.83
21828;BME280;11076;47.942;11.804;2023-12-04T15:16:46;93593.25;;;-5.59;40.74
21828;BME280;11076;47.942;11.804;2023-12-04T15:21:54;93587.53;;;-5.63;40.21
21828;BME280;11076;47.942;11.804;2023-12-04T15:26:57;93575.47;;;-5.59;40.44
21828;BME280;11076;47.942;11.804;2023-12-04T15:31:59;93567.00;;;-5.88;40.93
21828;BME280;11076;47.942;11.804;2023-12-04T15:37:02;93570.25;;;-5.86;40.38
21828;BME280;11076;47.942;11.804;2023-12-04T15:42:04;93580.22;;;-5.74;40.39
21828;BME280;11076;47.942;11.804;2023-12-04T15:47:09;93585.97;;;-5.46;40.02
21828;BME280;11076;47.942;11.804;2023-12-04T15:52:11;93575.34;;;-5.46;40.86
21828;BME280;11076;47.942;11.804;2023-12-04T15:57:14;93565.25;;;-5.30;40.76
21828;BME280;11076;47.942;11.804;2023-12-04T16:02:18;93559.91;;;-4.98;40.41
21828;BME280;11076;47.942;11.804;2023-12-04T16:07:20;93569.28;;;-5.53;41.04
21828;BME280;11076;47.942;11.804;2023-12-04T16:12:23;93577.41;;;-5.48;40.81
21828;BME280;11076;47.942;11.804;2023-12-04T16:17:25;93568.56;;;-5.35;40.91
21828;BME280;11076;47.942;11.804;2023-12-04T16:22:28;93565.69;;;-5.65;41.17
21828;BME280;11076;47.942;11.804;2023-12-04T16:27:31;93542.81;;;-5.66;41.58
21828;BME280;11076;47.942;11.804;2023-12-04T16:32:34;93528.53;;;-5.72;41.63
21828;BME280;11076;47.942;11.804;2023-12-04T16:37:36;93536.50;;;-5.33;40.96
21828;BME280;11076;47.942;11.804;2023-12-04T16:42:41;93535.66;;;-5.34;40.48
21828;BME280;11076;47.942;11.804;2023-12-04T16:47:44;93523.34;;;-5.28;40.63
21828;BME280;11076;47.942;11.804;2023-12-04T16:52:46;93525.56;;;-5.50;41.20
21828;BME280;11076;47.942;11.804;2023-12-04T16:57:48;93527.59;;;-5.20;40.89
21828;BME280;11076;47.942;11.804;2023-12-04T17:02:51;93521.50;;;-5.28;40.86
21828;BME280;11076;47.942;11.804;2023-12-04T17:07:53;93525.03;;;-5.09;41.09
21828;BME280;11076;47.942;11.804;2023-12-04T17:12:56;93517.41;;;-4.98;40.83
21828;BME280;11076;47.942;11.804;2023-12-04T17:17:58;93515.31;;;-4.96;40.47
21828;BME280;11076;47.942;11.804;2023-12-04T17:23:02;93504.88;;;-5.41;41.08
21828;BME280;11076;47.942;11.804;2023-12-04T17:28:04;93498.19;;;-5.00;40.55
21828;BME280;11076;47.942;11.804;2023-12-04T17:33:08;93492.66;;;-4.99;40.65
21828;BME280;11076;47.942;11.804;2023-12-04T17:38:10;93493.44;;;-5.17;40.22
21828;BME280;11076;47.942;11.804;2023-12-04T17:43:13;93494.94;;;-5.03;40.46
21828;BME280;11076;47.942;11.804;2023-12-04T17:48:15;93495.44;;;-5.12;40.06
21828;BME280;11076;47.942;11.804;2023-12-04T17:53:18;93488.38;;;-5.00;40.22
21828;BME280;11076;47.942;11.804;2023-12-04T17:58:20;93476.34;;;-5.03;40.11
21828;BME280;11076;47.942;11.804;2023-12-04T18:03:22;93475.50;;;-5.21;40.58
21828;BME280;11076;47.942;11.804;2023-12-04T18:08:25;93470.53;;;-5.18;40.77
21828;BME280;11076;47.942;11.804;2023-12-04T18:13:30;93462.53;;;-5.36;40.54
21828;BME280;11076;47.942;11.804;2023-12-04T18:18:32;93456.16;;;-5.29;40.52
21828;BME280;11076;47.942;11.804;2023-12-04T18:23:35;93443.88;;;-5.05;40.28
21828;BME280;11076;47.942;11.804;2023-12-04T18:28:38;93453.19;;;-4.95;40.36
21828;BME280;11076;47.942;11.804;2023-12-04T18:33:41;93448.75;;;-4.46;39.90
21828;BME280;11076;47.942;11.804;2023-12-04T18:38:52;93444.03;;;-4.44;39.79
21828;BME280;11076;47.942;11.804;2023-12-04T18:43:55;93438.56;;;-4.49;39.97
21828;BME280;11076;47.942;11.804;2023-12-04T18:48:58;93445.44;;;-4.41;39.50
21828;BME280;11076;47.942;11.804;2023-12-04T18:54:02;93456.53;;;-4.14;39.61
21828;BME280;11076;47.942;11.804;2023-12-04T18:59:04;93455.78;;;-3.73;38.74
21828;BME280;11076;47.942;11.804;2023-12-04T19:04:07;93454.03;;;-3.79;39.15
21828;BME280;11076;47.942;11.804;2023-12-04T19:09:09;93442.84;;;-3.99;39.14
21828;BME280;11076;47.942;11.804;2023-12-04T19:14:12;93453.84;;;-4.26;39.74
21828;BME280;11076;47.942;11.804;2023-12-04T19:19:15;93447.94;;;-3.98;39.61
21828;BME280;11076;47.942;11.804;2023-12-04T19:24:17;93431.13;;;-4.10;39.65
21828;BME280;11076;47.942;11.804;2023-12-04T19:29:19;93430.13;;;-4.28;39.71
21828;BME280;11076;47.942;11.804;2023-12-04T19:34:22;93427.78;;;-4.06;39.64
21828;BME280;11076;47.942;11.804;2023-12-04T19:39:24;93417.09;;;-4.17;39.85
21828;BME280;11076;47.942;11.804;2023-12-04T19:44:27;93421.06;;;-4.08;40.01
21828;BME280;11076;47.942;11.804;2023-12-04T19:49:29;93419.88;;;-3.82;40.03
21828;BME280;11076;47.942;11.804;2023-12-04T19:54:32;93410.88;;;-3.69;40.02
21828;BME280;11076;47.942;11.804;2023-12-04T19:59:34;93415.91;;;-3.49;40.25
21828;BME280;11076;47.942;11.804;2023-12-04T20:04:40;93419.50;;;-3.44;40.14
21828;BME280;11076;47.942;11.804;2023-12-04T20:09:43;93417.72;;;-3.61;40.33
21828;BME280;11076;47.942;11.804;2023-12-04T20:14:46;93419.03;;;-3.52;39.85
21828;BME280;11076;47.942;11.804;2023-12-04T20:19:50;93420.94;;;-3.71;40.37
21828;BME280;11076;47.942;11.804;2023-12-04T20:24:53;93416.28;;;-3.88;40.19
21828;BME280;11076;47.942;11.804;2023-12-04T20:29:56;93412.03;;;-4.07;40.20
21828;BME280;11076;47.942;11.804;2023-12-04T20:34:58;93405.91;;;-4.08;39.92
21828;BME280;11076;47.942;11.804;2023-12-04T20:40:01;93399.63;;;-4.13;40.35
21828;BME280;11076;47.942;11.804;2023-12-04T20:45:05;93395.41;;;-3.91;40.38
21828;BME280;11076;47.942;11.804;2023-12-04T20:50:08;93391.72;;;-3.90;40.39
21828;BME280;11076;47.942;11.804;2023-12-04T20:55:11;93393.16;;;-3.75;39.99
21828;BME280;11076;47.942;11.804;2023-12-04T21:00:14;93384.81;;;-3.67;39.92
21828;BME280;11076;47.942;11.804;2023-12-04T21:05:17;93384.72;;;-3.60;39.85
21828;BME280;11076;47.942;11.804;2023-12-04T21:10:20;93390.69;;;-3.77;40.27
21828;BME280;11076;47.942;11.804;2023-12-04T21:15:23;93385.63;;;-3.78;40.71
21828;BME280;11076;47.942;11.804;2023-12-04T21:20:25;93387.22;;;-3.77;40.12
21828;BME280;11076;47.942;11.804;2023-12-04T21:25:28;93385.53;;;-3.60;40.04
21828;BME280;11076;47.942;11.804;2023-12-04T21:30:30;93375.84;;;-3.96;40.68
21828;BME280;11076;47.942;11.804;2023-12-04T21:35:32;93367.84;;;-3.96;40.67
21828;BME280;11076;47.942;11.804;2023-12-04T21:40:35;93359.78;;;-3.90;40.42
21828;BME280;11076;47.942;11.804;2023-12-04T21:45:37;93356.63;;;-3.98;40.45
21828;BME280;11076;47.942;11.804;2023-12-04T21:50:40;93344.97;;;-3.86;40.40
21828;BME280;11076;47.942;11.804;2023-12-04T21:55:42;93339.03;;;-3.99;41.18
21828;BME280;11076;47.942;11.804;2023-12-04T22:00:45;93335.69;;;-3.95;40.97
21828;BME280;11076;47.942;11.804;2023-12-04T22:05:48;93336.66;;;-3.66;40.31
21828;BME280;11076;47.942;11.804;2023-12-04T22:10:50;93328.72;;;-3.54;40.67
21828;BME280;11076;47.942;11.804;2023-12-04T22:15:52;93336.69;;;-3.30;40.03
21828;BME280;11076;47.942;11.804;2023-12-04T22:20:56;93325.69;;;-3.34;40.92
21828;BME280;11076;47.942;11.804;2023-12-04T22:25:59;93304.50;;;-3.40;41.23
21828;BME280;11076;47.942;11.804;2023-12-04T22:31:02;93308.19;;;-3.41;40.89
21828;BME280;11076;47.942;11.804;2023-12-04T22:36:06;93311.94;;;-3.42;40.81
21828;BME280;11076;47.942;11.804;2023-12-04T22:41:08;93305.72;;;-3.08;40.27
21828;BME280;11076;47.942;11.804;2023-12-04T22:46:11;93308.81;;;-2.87;40.54
21828;BME280;11076;47.942;11.804;2023-12-04T22:51:13;93288.13;;;-3.09;40.56
21828;BME280;11076;47.942;11.804;2023-12-04T22:56:17;93300.31;;;-3.13;39.84
21828;BME280;11076;47.942;11.804;2023-12-04T23:01:20;93300.63;;;-3.09;40.42
21828;BME280;11076;47.942;11.804;2023-12-04T23:06:22;93303.13;;;-2.50;40.04
21828;BME280;11076;47.942;11.804;2023-12-04T23:11:25;93285.19;;;-2.38;39.96
21828;BME280;11076;47.942;11.804;2023-12-04T23:16:27;93276.19;;;-2.77;40.10
21828;BME280;11076;47.942;11.804;2023-12-04T23:21:29;93274.00;;;-3.21;40.56
21828;BME280;11076;47.942;11.804;2023-12-04T23:26:32;93281.22;;;-3.57;40.81
21828;BME280;11076;47.942;11.804;2023-12-04T23:31:34;93286.16;;;-3.96;40.63
21828;BME280;11076;47.942;11.804;2023-12-04T23:36:37;93287.00;;;-3.72;40.56
21828;BME280;11076;47.942;11.804;2023-12-04T23:41:39;93270.91;;;-3.41;40.13
21828;BME280;11076;47.942;11.804;2023-12-04T23:46:41;93267.22;;;-3.40;39.75
21828;BME280;11076;47.942;11.804;2023-12-04T23:51:44;93265.34;;;-3.28;40.01
21828;BME280;11076;47.942;11.804;2023-12-04T23:56:46;93273.72;;;-3.48;40.67
